sensor_id;sensor_type;location;lat;lon;timestamp;temperature;humidity
72576;DHT22;60613;48.658;2.328;2023-02-17T07:02:38;20.60;41.30
72576;DHT22;60613;48.658;2.328;2023-02-17T07:05:05;20.60;41.70
72576;DHT22;60613;48.658;2.328;2023-02-17T07:07:30;20.70;41.40
72576;DHT22;60613;48.658;2.328;2023-02-17T07:09:56;20.80;41.00
72576;DHT22;60613;48.658;2.328;2023-02-17T07:12:22;20.90;41.00
72576;DHT22;60613;48.658;2.328;2023-02-17T07:14:47;21.00;40.70
72576;DHT22;60613;48.658;2.328;2023-02-17T07:17:13;21.00;40.80
72576;DHT22;60613;48.658;2.328;2023-02-17T07:19:38;21.10;40.90
72576;DHT22;60613;48.658;2.328;2023-02-17T07:22:04;21.20;41.00
72576;DHT22;60613;48.658;2.328;2023-02-17T07:24:30;21.30;40.90
72576;DHT22;60613;48.658;2.328;2023-02-17T07:26:56;21.30;40.80
72576;DHT22;60613;48.658;2.328;2023-02-17T07:29:21;21.30;41.00
72576;DHT22;60613;48.658;2.328;2023-02-17T07:31:47;21.40;41.40
72576;DHT22;60613;48.658;2.328;2023-02-17T07:34:13;21.40;41.20
72576;DHT22;60613;48.658;2.328;2023-02-17T07:36:38;21.40;41.00
72576;DHT22;60613;48.658;2.328;2023-02-17T07:39:04;21.40;40.90
72576;DHT22;60613;48.658;2.328;2023-02-17T07:41:31;21.50;40.70
72576;DHT22;60613;48.658;2.328;2023-02-17T07:43:58;21.50;40.50
72576;DHT22;60613;48.658;2.328;2023-02-17T07:46:24;21.50;40.40
72576;DHT22;60613;48.658;2.328;2023-02-17T07:48:50;21.50;40.20
72576;DHT22;60613;48.658;2.328;2023-02-17T07:51:20;21.50;40.10
72576;DHT22;60613;48.658;2.328;2023-02-17T07:53:47;21.50;41.20
72576;DHT22;60613;48.658;2.328;2023-02-17T07:56:14;21.50;40.00
72576;DHT22;60613;48.658;2.328;2023-02-17T07:58:41;21.50;40.00
72576;DHT22;60613;48.658;2.328;2023-02-17T08:01:09;21.60;39.90
72576;DHT22;60613;48.658;2.328;2023-02-17T08:03:35;21.60;39.80
72576;DHT22;60613;48.658;2.328;2023-02-17T08:06:01;21.60;39.70
72576;DHT22;60613;48.658;2.328;2023-02-17T08:08:27;21.60;39.50
72576;DHT22;60613;48.658;2.328;2023-02-17T08:11:12;21.60;39.50
72576;DHT22;60613;48.658;2.328;2023-02-17T08:13:57;21.60;39.40
72576;DHT22;60613;48.658;2.328;2023-02-17T08:16:22;21.60;39.20
72576;DHT22;60613;48.658;2.328;2023-02-17T08:18:51;21.60;39.10
72576;DHT22;60613;48.658;2.328;2023-02-17T08:21:17;21.60;39.00
72576;DHT22;60613;48.658;2.328;2023-02-17T08:23:42;21.70;39.00
72576;DHT22;60613;48.658;2.328;2023-02-17T08:26:08;21.70;38.90
72576;DHT22;60613;48.658;2.328;2023-02-17T08:28:33;21.70;38.80
72576;DHT22;60613;48.658;2.328;2023-02-17T08:30:59;21.70;38.70
72576;DHT22;60613;48.658;2.328;2023-02-17T08:33:25;21.70;38.60
72576;DHT22;60613;48.658;2.328;2023-02-17T08:35:51;21.70;38.50
72576;DHT22;60613;48.658;2.328;2023-02-17T08:38:17;21.70;38.50
72576;DHT22;60613;48.658;2.328;2023-02-17T08:40:42;21.80;38.40
72576;DHT22;60613;48.658;2.328;2023-02-17T08:43:08;21.80;38.40
72576;DHT22;60613;48.658;2.328;2023-02-17T08:45:34;21.80;38.30
72576;DHT22;60613;48.658;2.328;2023-02-17T08:48:02;21.80;38.30
72576;DHT22;60613;48.658;2.328;2023-02-17T08:50:28;21.80;38.20
72576;DHT22;60613;48.658;2.328;2023-02-17T08:52:54;21.80;38.20
72576;DHT22;60613;48.658;2.328;2023-02-17T08:55:20;21.80;38.10
72576;DHT22;60613;48.658;2.328;2023-02-17T08:57:48;21.80;38.00
72576;DHT22;60613;48.658;2.328;2023-02-17T09:00:14;21.80;38.00
72576;DHT22;60613;48.658;2.328;2023-02-17T09:02:40;21.80;37.90
72576;DHT22;60613;48.658;2.328;2023-02-17T09:05:12;21.80;37.90
72576;DHT22;60613;48.658;2.328;2023-02-17T09:07:38;21.80;37.80
72576;DHT22;60613;48.658;2.328;2023-02-17T09:10:06;21.80;37.90
72576;DHT22;60613;48.658;2.328;2023-02-17T09:12:32;21.80;38.00
72576;DHT22;60613;48.658;2.328;2023-02-17T09:14:58;21.80;37.80
72576;DHT22;60613;48.658;2.328;2023-02-17T09:17:24;21.80;37.90
72576;DHT22;60613;48.658;2.328;2023-02-17T09:19:50;21.80;37.70
72576;DHT22;60613;48.658;2.328;2023-02-17T09:22:15;21.90;37.90
72576;DHT22;60613;48.658;2.328;2023-02-17T09:24:42;21.80;37.70
72576;DHT22;60613;48.658;2.328;2023-02-17T09:27:08;21.80;38.50
72576;DHT22;60613;48.658;2.328;2023-02-17T09:29:36;21.80;38.90
72576;DHT22;60613;48.658;2.328;2023-02-17T09:32:06;21.80;38.90
72576;DHT22;60613;48.658;2.328;2023-02-17T09:34:37;21.80;38.80
72576;DHT22;60613;48.658;2.328;2023-02-17T09:37:03;21.80;38.80
72576;DHT22;60613;48.658;2.328;2023-02-17T09:39:28;21.80;38.90
72576;DHT22;60613;48.658;2.328;2023-02-17T09:41:54;21.90;39.10
72576;DHT22;60613;48.658;2.328;2023-02-17T09:44:26;21.90;39.20
72576;DHT22;60613;48.658;2.328;2023-02-17T09:47:06;21.90;38.90
72576;DHT22;60613;48.658;2.328;2023-02-17T09:49:40;21.90;39.10
72576;DHT22;60613;48.658;2.328;2023-02-17T09:52:16;21.90;39.10
72576;DHT22;60613;48.658;2.328;2023-02-17T09:54:50;21.90;38.90
72576;DHT22;60613;48.658;2.328;2023-02-17T09:57:20;21.90;38.90
72576;DHT22;60613;48.658;2.328;2023-02-17T09:59:56;21.90;38.90
72576;DHT22;60613;48.658;2.328;2023-02-17T10:04:53;21.90;39.70
72576;DHT22;60613;48.658;2.328;2023-02-17T10:07:28;21.90;40.80
72576;DHT22;60613;48.658;2.328;2023-02-17T10:10:00;21.80;42.90
72576;DHT22;60613;48.658;2.328;2023-02-17T10:12:32;21.90;42.10
72576;DHT22;60613;48.658;2.328;2023-02-17T10:15:15;21.90;42.90
72576;DHT22;60613;48.658;2.328;2023-02-17T10:20:35;21.80;43.20
72576;DHT22;60613;48.658;2.328;2023-02-17T10:23:15;21.80;42.00
72576;DHT22;60613;48.658;2.328;2023-02-17T10:29:05;21.90;41.50
72576;DHT22;60613;48.658;2.328;2023-02-17T10:32:03;21.90;41.30
72576;DHT22;60613;48.658;2.328;2023-02-17T10:37:44;21.90;41.00
72576;DHT22;60613;48.658;2.328;2023-02-17T10:40:24;21.90;40.80
72576;DHT22;60613;48.658;2.328;2023-02-17T10:42:53;21.90;41.00
72576;DHT22;60613;48.658;2.328;2023-02-17T10:45:27;22.00;40.70
72576;DHT22;60613;48.658;2.328;2023-02-17T10:48:46;22.00;40.60
72576;DHT22;60613;48.658;2.328;2023-02-17T10:50:56;22.00;40.50
72576;DHT22;60613;48.658;2.328;2023-02-17T10:53:27;22.00;40.30
72576;DHT22;60613;48.658;2.328;2023-02-17T11:01:16;22.00;40.00
72576;DHT22;60613;48.658;2.328;2023-02-17T11:03:41;22.00;39.80
72576;DHT22;60613;48.658;2.328;2023-02-17T11:06:19;22.00;39.80
72576;DHT22;60613;48.658;2.328;2023-02-17T11:08:51;22.00;39.70
72576;DHT22;60613;48.658;2.328;2023-02-17T11:11:23;22.00;39.70
72576;DHT22;60613;48.658;2.328;2023-02-17T11:14:00;22.00;39.60
72576;DHT22;60613;48.658;2.328;2023-02-17T11:16:38;22.00;39.70
72576;DHT22;60613;48.658;2.328;2023-02-17T11:19:06;22.00;39.70
72576;DHT22;60613;48.658;2.328;2023-02-17T11:21:31;22.00;39.70
72576;DHT22;60613;48.658;2.328;2023-02-17T11:24:04;22.00;39.60
72576;DHT22;60613;48.658;2.328;2023-02-17T11:26:32;22.00;39.50
72576;DHT22;60613;48.658;2.328;2023-02-17T11:29:14;22.00;39.60
72576;DHT22;60613;48.658;2.328;2023-02-17T11:31:40;22.10;39.60
72576;DHT22;60613;48.658;2.328;2023-02-17T11:34:13;22.00;39.80
72576;DHT22;60613;48.658;2.328;2023-02-17T11:36:39;22.00;39.90
72576;DHT22;60613;48.658;2.328;2023-02-17T11:39:18;22.00;40.00
72576;DHT22;60613;48.658;2.328;2023-02-17T11:41:44;22.00;40.00
72576;DHT22;60613;48.658;2.328;2023-02-17T11:44:10;22.00;40.00
72576;DHT22;60613;48.658;2.328;2023-02-17T11:46:45;22.00;40.00
72576;DHT22;60613;48.658;2.328;2023-02-17T11:52:31;22.00;40.00
72576;DHT22;60613;48.658;2.328;2023-02-17T12:08:39;22.00;40.30
72576;DHT22;60613;48.658;2.328;2023-02-17T12:22:34;22.20;40.50
72576;DHT22;60613;48.658;2.328;2023-02-17T12:25:22;22.10;40.40
72576;DHT22;60613;48.658;2.328;2023-02-17T12:31:09;22.20;40.40
72576;DHT22;60613;48.658;2.328;2023-02-17T12:33:56;22.20;40.50
72576;DHT22;60613;48.658;2.328;2023-02-17T12:36:28;22.20;40.50
72576;DHT22;60613;48.658;2.328;2023-02-17T12:44:35;22.20;40.30
72576;DHT22;60613;48.658;2.328;2023-02-17T12:47:18;22.20;40.30
72576;DHT22;60613;48.658;2.328;2023-02-17T12:49:52;22.10;40.30
72576;DHT22;60613;48.658;2.328;2023-02-17T12:52:38;22.20;40.30
72576;DHT22;60613;48.658;2.328;2023-02-17T12:55:20;22.20;40.20
72576;DHT22;60613;48.658;2.328;2023-02-17T13:00:19;22.20;40.30
72576;DHT22;60613;48.658;2.328;2023-02-17T13:02:45;22.20;40.20
72576;DHT22;60613;48.658;2.328;2023-02-17T13:05:27;22.20;40.30
72576;DHT22;60613;48.658;2.328;2023-02-17T13:08:10;22.20;40.30
72576;DHT22;60613;48.658;2.328;2023-02-17T13:10:39;22.20;40.20
72576;DHT22;60613;48.658;2.328;2023-02-17T13:13:10;22.20;40.30
72576;DHT22;60613;48.658;2.328;2023-02-17T13:15:42;22.20;40.50
72576;DHT22;60613;48.658;2.328;2023-02-17T13:21:00;22.20;40.90
72576;DHT22;60613;48.658;2.328;2023-02-17T13:23:40;22.20;40.60
72576;DHT22;60613;48.658;2.328;2023-02-17T13:26:14;22.20;40.40
72576;DHT22;60613;48.658;2.328;2023-02-17T13:28:42;22.20;40.40
72576;DHT22;60613;48.658;2.328;2023-02-17T13:31:11;22.30;40.70
72576;DHT22;60613;48.658;2.328;2023-02-17T13:39:01;22.30;40.50
72576;DHT22;60613;48.658;2.328;2023-02-17T13:41:32;22.20;40.50
72576;DHT22;60613;48.658;2.328;2023-02-17T13:43:58;22.20;40.40
72576;DHT22;60613;48.658;2.328;2023-02-17T13:46:25;22.20;40.50
72576;DHT22;60613;48.658;2.328;2023-02-17T13:48:59;22.20;40.50
72576;DHT22;60613;48.658;2.328;2023-02-17T13:51:27;22.20;40.50
72576;DHT22;60613;48.658;2.328;2023-02-17T13:53:53;22.10;40.50
72576;DHT22;60613;48.658;2.328;2023-02-17T13:56:29;22.20;41.60
72576;DHT22;60613;48.658;2.328;2023-02-17T13:59:09;22.20;40.40
72576;DHT22;60613;48.658;2.328;2023-02-17T14:01:41;22.20;40.40
72576;DHT22;60613;48.658;2.328;2023-02-17T14:04:21;22.20;41.60
72576;DHT22;60613;48.658;2.328;2023-02-17T14:06:48;22.20;40.50
72576;DHT22;60613;48.658;2.328;2023-02-17T14:09:34;22.20;40.50
72576;DHT22;60613;48.658;2.328;2023-02-17T14:12:02;22.20;40.40
72576;DHT22;60613;48.658;2.328;2023-02-17T14:14:38;22.20;40.50
72576;DHT22;60613;48.658;2.328;2023-02-17T14:17:28;22.20;40.90
72576;DHT22;60613;48.658;2.328;2023-02-17T14:19:55;22.20;41.00
72576;DHT22;60613;48.658;2.328;2023-02-17T14:22:32;22.20;41.20
72576;DHT22;60613;48.658;2.328;2023-02-17T14:25:07;22.30;41.30
72576;DHT22;60613;48.658;2.328;2023-02-17T14:27:44;22.30;41.30
72576;DHT22;60613;48.658;2.328;2023-02-17T14:30:25;22.30;41.80
72576;DHT22;60613;48.658;2.328;2023-02-17T14:33:21;22.30;41.90
72576;DHT22;60613;48.658;2.328;2023-02-17T14:36:00;22.30;41.90
72576;DHT22;60613;48.658;2.328;2023-02-17T14:38:33;22.30;42.10
72576;DHT22;60613;48.658;2.328;2023-02-17T14:41:00;22.30;42.40
72576;DHT22;60613;48.658;2.328;2023-02-17T14:43:26;22.30;42.20
72576;DHT22;60613;48.658;2.328;2023-02-17T14:45:52;22.30;42.60
72576;DHT22;60613;48.658;2.328;2023-02-17T14:48:19;22.30;42.30
72576;DHT22;60613;48.658;2.328;2023-02-17T14:50:45;22.30;42.30
72576;DHT22;60613;48.658;2.328;2023-02-17T14:53:17;22.30;42.30
72576;DHT22;60613;48.658;2.328;2023-02-17T14:55:49;22.30;42.30
72576;DHT22;60613;48.658;2.328;2023-02-17T14:58:20;22.30;42.20
72576;DHT22;60613;48.658;2.328;2023-02-17T15:00:47;22.30;42.30
72576;DHT22;60613;48.658;2.328;2023-02-17T15:03:13;22.30;42.30
72576;DHT22;60613;48.658;2.328;2023-02-17T15:05:39;22.20;42.30
72576;DHT22;60613;48.658;2.328;2023-02-17T15:08:05;22.30;42.30
72576;DHT22;60613;48.658;2.328;2023-02-17T15:10:33;22.20;42.30
72576;DHT22;60613;48.658;2.328;2023-02-17T15:13:00;22.30;42.30
72576;DHT22;60613;48.658;2.328;2023-02-17T15:15:25;22.20;42.20
72576;DHT22;60613;48.658;2.328;2023-02-17T15:17:51;22.20;42.20
72576;DHT22;60613;48.658;2.328;2023-02-17T15:20:17;22.20;42.30
72576;DHT22;60613;48.658;2.328;2023-02-17T15:22:42;22.20;42.30
72576;DHT22;60613;48.658;2.328;2023-02-17T15:25:16;22.20;42.40
72576;DHT22;60613;48.658;2.328;2023-02-17T15:27:45;22.20;42.60
72576;DHT22;60613;48.658;2.328;2023-02-17T15:30:19;22.20;43.70
72576;DHT22;60613;48.658;2.328;2023-02-17T15:32:45;22.20;42.40
72576;DHT22;60613;48.658;2.328;2023-02-17T15:37:45;22.20;42.50
72576;DHT22;60613;48.658;2.328;2023-02-17T15:40:15;22.10;42.60
72576;DHT22;60613;48.658;2.328;2023-02-17T15:42:42;22.10;42.50
72576;DHT22;60613;48.658;2.328;2023-02-17T15:45:15;22.20;42.60
72576;DHT22;60613;48.658;2.328;2023-02-17T15:47:41;22.20;42.50
72576;DHT22;60613;48.658;2.328;2023-02-17T15:50:21;22.20;42.50
72576;DHT22;60613;48.658;2.328;2023-02-17T15:52:48;22.20;42.50
72576;DHT22;60613;48.658;2.328;2023-02-17T15:55:15;22.20;42.50
72576;DHT22;60613;48.658;2.328;2023-02-17T15:57:51;22.20;42.50
72576;DHT22;60613;48.658;2.328;2023-02-17T16:00:27;22.20;42.30
72576;DHT22;60613;48.658;2.328;2023-02-17T16:02:54;22.20;42.50
72576;DHT22;60613;48.658;2.328;2023-02-17T16:05:23;22.20;43.60
72576;DHT22;60613;48.658;2.328;2023-02-17T16:07:49;22.20;42.50
72576;DHT22;60613;48.658;2.328;2023-02-17T16:10:25;22.20;42.50
72576;DHT22;60613;48.658;2.328;2023-02-17T16:12:53;22.10;42.60
72576;DHT22;60613;48.658;2.328;2023-02-17T16:15:22;22.10;42.70
72576;DHT22;60613;48.658;2.328;2023-02-17T16:17:49;22.10;42.70
72576;DHT22;60613;48.658;2.328;2023-02-17T16:20:19;22.10;43.10
72576;DHT22;60613;48.658;2.328;2023-02-17T16:22:46;22.10;42.90
72576;DHT22;60613;48.658;2.328;2023-02-17T16:25:13;22.20;43.40
72576;DHT22;60613;48.658;2.328;2023-02-17T16:27:41;22.20;43.10
72576;DHT22;60613;48.658;2.328;2023-02-17T16:32:47;22.10;43.30
72576;DHT22;60613;48.658;2.328;2023-02-17T16:35:21;22.20;43.10
72576;DHT22;60613;48.658;2.328;2023-02-17T16:37:52;22.20;43.00
72576;DHT22;60613;48.658;2.328;2023-02-17T16:40:20;22.30;43.20
72576;DHT22;60613;48.658;2.328;2023-02-17T16:42:46;22.30;42.80
72576;DHT22;60613;48.658;2.328;2023-02-17T16:45:14;22.20;42.90
72576;DHT22;60613;48.658;2.328;2023-02-17T16:47:43;22.20;42.90
72576;DHT22;60613;48.658;2.328;2023-02-17T16:50:16;22.20;43.00
72576;DHT22;60613;48.658;2.328;2023-02-17T16:52:42;22.20;43.10
72576;DHT22;60613;48.658;2.328;2023-02-17T16:55:14;22.20;44.30
72576;DHT22;60613;48.658;2.328;2023-02-17T16:57:42;22.20;43.10
72576;DHT22;60613;48.658;2.328;2023-02-17T17:00:11;22.20;43.00
72576;DHT22;60613;48.658;2.328;2023-02-17T17:02:37;22.20;43.40
72576;DHT22;60613;48.658;2.328;2023-02-17T17:05:02;22.30;43.00
72576;DHT22;60613;48.658;2.328;2023-02-17T17:07:29;22.30;43.10
72576;DHT22;60613;48.658;2.328;2023-02-17T17:09:55;22.30;43.40
72576;DHT22;60613;48.658;2.328;2023-02-17T17:12:21;22.30;43.70
72576;DHT22;60613;48.658;2.328;2023-02-17T17:14:47;22.30;43.90
72576;DHT22;60613;48.658;2.328;2023-02-17T17:17:12;22.30;43.60
72576;DHT22;60613;48.658;2.328;2023-02-17T17:19:38;22.30;43.90
72576;DHT22;60613;48.658;2.328;2023-02-17T17:22:03;22.40;43.90
72576;DHT22;60613;48.658;2.328;2023-02-17T17:24:29;22.40;43.70
72576;DHT22;60613;48.658;2.328;2023-02-17T17:26:55;22.40;43.50
72576;DHT22;60613;48.658;2.328;2023-02-17T17:29:20;22.40;43.60
72576;DHT22;60613;48.658;2.328;2023-02-17T17:31:46;22.40;43.50
72576;DHT22;60613;48.658;2.328;2023-02-17T17:34:12;22.30;43.30
72576;DHT22;60613;48.658;2.328;2023-02-17T17:36:43;22.30;43.50
72576;DHT22;60613;48.658;2.328;2023-02-17T17:39:18;22.30;43.60
72576;DHT22;60613;48.658;2.328;2023-02-17T17:41:44;22.30;43.20
72576;DHT22;60613;48.658;2.328;2023-02-17T17:44:10;22.30;43.30
72576;DHT22;60613;48.658;2.328;2023-02-17T17:46:37;22.30;43.40
72576;DHT22;60613;48.658;2.328;2023-02-17T17:49:03;22.20;43.40
72576;DHT22;60613;48.658;2.328;2023-02-17T17:51:31;22.20;43.40
72576;DHT22;60613;48.658;2.328;2023-02-17T17:53:58;22.20;43.40
72576;DHT22;60613;48.658;2.328;2023-02-17T17:56:27;22.20;43.50
72576;DHT22;60613;48.658;2.328;2023-02-17T17:58:53;22.20;43.40
72576;DHT22;60613;48.658;2.328;2023-02-17T18:01:20;22.20;43.30
72576;DHT22;60613;48.658;2.328;2023-02-17T18:03:47;22.20;43.20
72576;DHT22;60613;48.658;2.328;2023-02-17T18:06:24;22.20;43.30
72576;DHT22;60613;48.658;2.328;2023-02-17T18:08:52;22.20;43.40
72576;DHT22;60613;48.658;2.328;2023-02-17T18:11:20;22.20;43.20
72576;DHT22;60613;48.658;2.328;2023-02-17T18:13:49;22.20;43.00
72576;DHT22;60613;48.658;2.328;2023-02-17T18:16:17;22.20;43.10
72576;DHT22;60613;48.658;2.328;2023-02-17T18:18:43;22.20;43.40
72576;DHT22;60613;48.658;2.328;2023-02-17T18:21:09;22.30;42.90
72576;DHT22;60613;48.658;2.328;2023-02-17T18:23:34;22.30;42.80
72576;DHT22;60613;48.658;2.328;2023-02-17T18:26:00;22.30;42.70
72576;DHT22;60613;48.658;2.328;2023-02-17T18:28:26;22.40;42.90
72576;DHT22;60613;48.658;2.328;2023-02-17T18:30:51;22.40;42.60
72576;DHT22;60613;48.658;2.328;2023-02-17T18:33:17;22.40;42.20
72576;DHT22;60613;48.658;2.328;2023-02-17T18:35:42;22.40;42.20
72576;DHT22;60613;48.658;2.328;2023-02-17T18:38:10;22.40;41.90
72576;DHT22;60613;48.658;2.328;2023-02-17T18:40:40;22.40;41.80
72576;DHT22;60613;48.658;2.328;2023-02-17T18:43:06;22.40;41.80
72576;DHT22;60613;48.658;2.328;2023-02-17T18:45:32;22.40;41.80
72576;DHT22;60613;48.658;2.328;2023-02-17T18:47:58;22.40;41.80
72576;DHT22;60613;48.658;2.328;2023-02-17T18:50:24;22.40;41.80
72576;DHT22;60613;48.658;2.328;2023-02-17T18:52:50;22.40;41.90
72576;DHT22;60613;48.658;2.328;2023-02-17T18:55:16;22.40;42.00
72576;DHT22;60613;48.658;2.328;2023-02-17T18:57:42;22.40;41.90
72576;DHT22;60613;48.658;2.328;2023-02-17T19:00:11;22.40;41.90
72576;DHT22;60613;48.658;2.328;2023-02-17T19:02:38;22.40;41.90
72576;DHT22;60613;48.658;2.328;2023-02-17T19:05:06;22.40;42.00
72576;DHT22;60613;48.658;2.328;2023-02-17T19:07:32;22.40;42.00
72576;DHT22;60613;48.658;2.328;2023-02-17T19:09:58;22.40;42.00
72576;DHT22;60613;48.658;2.328;2023-02-17T19:12:24;22.30;42.00
72576;DHT22;60613;48.658;2.328;2023-02-17T19:14:51;22.40;42.00
72576;DHT22;60613;48.658;2.328;2023-02-17T19:17:22;22.40;42.00
72576;DHT22;60613;48.658;2.328;2023-02-17T19:19:49;22.40;42.00
72576;DHT22;60613;48.658;2.328;2023-02-17T19:22:14;22.30;42.10
72576;DHT22;60613;48.658;2.328;2023-02-17T19:24:41;22.30;42.00
72576;DHT22;60613;48.658;2.328;2023-02-17T19:27:07;22.40;42.00
72576;DHT22;60613;48.658;2.328;2023-02-17T19:29:33;22.40;41.90
72576;DHT22;60613;48.658;2.328;2023-02-17T19:31:59;22.40;41.90
72576;DHT22;60613;48.658;2.328;2023-02-17T19:34:26;22.40;42.00
72576;DHT22;60613;48.658;2.328;2023-02-17T19:36:52;22.30;42.00
72576;DHT22;60613;48.658;2.328;2023-02-17T19:39:18;22.30;41.90
72576;DHT22;60613;48.658;2.328;2023-02-17T19:41:43;22.30;42.00
72576;DHT22;60613;48.658;2.328;2023-02-17T19:44:09;22.30;41.90
72576;DHT22;60613;48.658;2.328;2023-02-17T19:46:35;22.40;42.20
72576;DHT22;60613;48.658;2.328;2023-02-17T19:49:01;22.40;42.20
72576;DHT22;60613;48.658;2.328;2023-02-17T19:51:28;22.40;42.50
72576;DHT22;60613;48.658;2.328;2023-02-17T19:53:56;22.40;42.30
72576;DHT22;60613;48.658;2.328;2023-02-17T19:56:24;22.40;42.30
72576;DHT22;60613;48.658;2.328;2023-02-17T19:58:51;22.50;42.40
72576;DHT22;60613;48.658;2.328;2023-02-17T20:01:23;22.40;42.50
72576;DHT22;60613;48.658;2.328;2023-02-17T20:03:49;22.40;42.70
72576;DHT22;60613;48.658;2.328;2023-02-17T20:06:19;22.40;42.80
72576;DHT22;60613;48.658;2.328;2023-02-17T20:08:47;22.50;42.70
72576;DHT22;60613;48.658;2.328;2023-02-17T20:11:16;22.50;42.60
72576;DHT22;60613;48.658;2.328;2023-02-17T20:13:41;22.40;42.70
72576;DHT22;60613;48.658;2.328;2023-02-17T20:16:09;22.40;43.10
72576;DHT22;60613;48.658;2.328;2023-02-17T20:18:42;22.40;42.90
72576;DHT22;60613;48.658;2.328;2023-02-17T20:21:10;22.40;42.70
72576;DHT22;60613;48.658;2.328;2023-02-17T20:23:37;22.40;42.70
72576;DHT22;60613;48.658;2.328;2023-02-17T20:26:08;22.40;42.70
72576;DHT22;60613;48.658;2.328;2023-02-17T20:28:35;22.40;42.80
72576;DHT22;60613;48.658;2.328;2023-02-17T20:31:00;22.40;44.00
72576;DHT22;60613;48.658;2.328;2023-02-17T20:33:26;22.40;42.60
72576;DHT22;60613;48.658;2.328;2023-02-17T20:35:52;22.40;42.80
72576;DHT22;60613;48.658;2.328;2023-02-17T20:38:17;22.40;42.90
72576;DHT22;60613;48.658;2.328;2023-02-17T20:40:43;22.40;42.80
72576;DHT22;60613;48.658;2.328;2023-02-17T20:43:09;22.40;42.80
72576;DHT22;60613;48.658;2.328;2023-02-17T20:45:38;22.40;42.90
72576;DHT22;60613;48.658;2.328;2023-02-17T20:48:04;22.40;42.70
72576;DHT22;60613;48.658;2.328;2023-02-17T20:50:30;22.40;42.70
72576;DHT22;60613;48.658;2.328;2023-02-17T20:52:56;22.40;43.90
72576;DHT22;60613;48.658;2.328;2023-02-17T20:55:21;22.40;42.70
72576;DHT22;60613;48.658;2.328;2023-02-17T20:57:47;22.40;42.60
72576;DHT22;60613;48.658;2.328;2023-02-17T21:00:17;22.40;42.50
72576;DHT22;60613;48.658;2.328;2023-02-17T21:02:43;22.40;42.50
72576;DHT22;60613;48.658;2.328;2023-02-17T21:05:09;22.40;42.50
72576;DHT22;60613;48.658;2.328;2023-02-17T21:07:36;22.40;42.40
72576;DHT22;60613;48.658;2.328;2023-02-17T21:10:03;22.40;42.50
72576;DHT22;60613;48.658;2.328;2023-02-17T21:12:28;22.40;42.40
72576;DHT22;60613;48.658;2.328;2023-02-17T21:14:54;22.40;42.20
72576;DHT22;60613;48.658;2.328;2023-02-17T21:17:19;22.40;42.30
72576;DHT22;60613;48.658;2.328;2023-02-17T21:19:45;22.40;42.30
72576;DHT22;60613;48.658;2.328;2023-02-17T21:22:10;22.40;42.30
72576;DHT22;60613;48.658;2.328;2023-02-17T21:24:36;22.40;42.20
72576;DHT22;60613;48.658;2.328;2023-02-17T21:27:02;22.40;42.10
72576;DHT22;60613;48.658;2.328;2023-02-17T21:29:27;22.40;42.10
72576;DHT22;60613;48.658;2.328;2023-02-17T21:31:53;22.40;42.10
72576;DHT22;60613;48.658;2.328;2023-02-17T21:34:19;22.40;42.00
72576;DHT22;60613;48.658;2.328;2023-02-17T21:36:44;22.30;41.90
72576;DHT22;60613;48.658;2.328;2023-02-17T21:39:10;22.40;42.00
72576;DHT22;60613;48.658;2.328;2023-02-17T21:41:39;22.30;41.90
72576;DHT22;60613;48.658;2.328;2023-02-17T21:44:05;22.30;41.90
72576;DHT22;60613;48.658;2.328;2023-02-17T21:46:49;22.30;41.90
72576;DHT22;60613;48.658;2.328;2023-02-17T21:49:16;22.30;41.90
72576;DHT22;60613;48.658;2.328;2023-02-17T21:51:42;22.30;41.90
72576;DHT22;60613;48.658;2.328;2023-02-17T21:54:08;22.30;41.90
72576;DHT22;60613;48.658;2.328;2023-02-17T21:56:34;22.30;43.10
72576;DHT22;60613;48.658;2.328;2023-02-17T21:59:01;22.20;42.10
